createdAt,value
2018-10-11T04:33:10.208Z,7.63
2018-10-11T04:35:38.403Z,8.50
2018-10-11T04:38:06.427Z,7.90
2018-10-11T04:40:34.455Z,8.20
2018-10-11T04:43:02.590Z,7.47
2018-10-11T04:45:30.492Z,7.20
2018-10-11T04:47:58.520Z,7.40
2018-10-11T04:50:26.589Z,7.47
2018-10-11T04:52:54.624Z,8.30
2018-10-11T04:55:22.631Z,6.67
2018-10-11T04:57:50.615Z,8.07
2018-10-11T05:00:18.615Z,7.53
2018-10-11T05:02:47.052Z,7.37
2018-10-11T05:05:15.948Z,8.30
2018-10-11T05:07:44.314Z,8.40
2018-10-11T05:10:12.372Z,7.40
2018-10-11T05:12:40.506Z,7.77
2018-10-11T05:15:08.787Z,7.20
2018-10-11T05:17:38.630Z,7.53
2018-10-11T05:20:08.765Z,8.50
2018-10-11T05:22:36.791Z,8.43
2018-10-11T05:25:04.818Z,7.47
2018-10-11T05:27:32.870Z,7.07
2018-10-11T05:30:00.855Z,7.43
2018-10-11T05:32:28.908Z,8.30
2018-10-11T05:34:57.700Z,7.37
2018-10-11T05:37:25.757Z,6.80
2018-10-11T05:39:53.791Z,8.03
2018-10-11T05:42:21.820Z,7.90
2018-10-11T05:44:50.091Z,8.13
2018-10-11T05:47:18.139Z,7.50
2018-10-11T05:49:46.168Z,7.60
2018-10-11T05:52:14.280Z,8.13
2018-10-11T05:54:42.300Z,8.10
2018-10-11T05:57:10.330Z,7.90
2018-10-11T05:59:38.366Z,7.07
2018-10-11T06:02:06.538Z,9.07
2018-10-11T06:04:34.647Z,8.40
2018-10-11T06:07:02.665Z,8.87
2018-10-11T06:09:31.008Z,7.20
2018-10-11T06:11:59.077Z,7.37
2018-10-11T06:14:27.077Z,8.30
2018-10-11T06:16:55.106Z,8.13
2018-10-11T06:19:23.849Z,8.57
2018-10-11T06:21:51.893Z,7.90
2018-10-11T06:24:20.001Z,8.10
2018-10-11T06:26:48.002Z,7.73
2018-10-11T06:29:16.096Z,7.17
2018-10-11T06:31:44.158Z,8.40
2018-10-11T06:34:12.456Z,6.80
2018-10-11T06:36:41.087Z,6.60
2018-10-11T06:39:09.537Z,6.57
2018-10-11T06:41:37.815Z,7.20
2018-10-11T06:44:05.891Z,6.30
2018-10-11T06:46:33.931Z,7.13
2018-10-11T06:49:01.919Z,6.80
2018-10-11T06:51:30.395Z,7.03
2018-10-11T06:53:58.740Z,7.53
2018-10-11T06:56:26.806Z,6.47
2018-10-11T06:58:54.878Z,6.50
2018-10-11T07:01:23.105Z,7.10
2018-10-11T07:03:51.368Z,6.33
2018-10-11T07:06:19.393Z,7.00
2018-10-11T07:08:47.479Z,7.50
2018-10-11T07:11:15.902Z,6.73
2018-10-11T07:13:44.158Z,7.30
2018-10-11T07:16:12.778Z,6.20
2018-10-11T07:18:40.896Z,6.10
2018-10-11T07:21:08.921Z,5.67
2018-10-11T07:23:37.166Z,5.47
2018-10-11T07:26:05.223Z,5.70
2018-10-11T07:28:33.273Z,5.33
2018-10-11T07:31:01.364Z,5.60
2018-10-11T07:33:29.427Z,5.87
2018-10-11T07:35:57.518Z,6.30
2018-10-11T07:38:25.543Z,5.30
2018-10-11T07:40:53.577Z,5.83
2018-10-11T07:43:21.589Z,5.80
2018-10-11T07:45:49.652Z,5.70
2018-10-11T07:48:17.787Z,5.33
2018-10-11T07:50:45.897Z,5.80
2018-10-11T07:53:14.189Z,5.27
2018-10-11T07:55:42.873Z,5.70
2018-10-11T07:58:11.498Z,5.77
2018-10-11T08:00:40.270Z,5.50
2018-10-11T08:03:09.252Z,5.87
2018-10-11T08:05:37.890Z,5.90
2018-10-11T08:08:05.931Z,5.43
2018-10-11T08:10:34.273Z,5.63
2018-10-11T08:13:02.700Z,5.40
2018-10-11T08:15:30.734Z,5.50
2018-10-11T08:17:59.089Z,5.43
2018-10-11T08:20:27.437Z,6.00
2018-10-11T08:22:55.684Z,5.87
2018-10-11T08:25:23.879Z,5.60
2018-10-11T08:27:52.035Z,5.77
2018-10-11T08:30:20.041Z,5.53
2018-10-11T08:32:48.328Z,5.37
2018-10-11T08:35:16.313Z,5.67
2018-10-11T08:37:44.358Z,5.80
2018-10-11T08:40:12.336Z,6.47
2018-10-11T08:42:40.423Z,6.40
2018-10-11T08:45:08.632Z,6.60
2018-10-11T08:47:36.613Z,6.30
2018-10-11T08:50:04.667Z,6.10
2018-10-11T08:52:32.961Z,5.77
2018-10-11T08:55:01.001Z,5.70
2018-10-11T08:57:29.047Z,6.40
2018-10-11T08:59:57.058Z,5.90
2018-10-11T09:02:25.072Z,5.93
2018-10-11T09:04:53.315Z,5.80
2018-10-11T09:07:21.322Z,5.10
2018-10-11T09:09:53.563Z,5.60
2018-10-11T09:12:17.537Z,5.90
2018-10-11T09:14:45.987Z,5.33
2018-10-11T09:17:14.065Z,5.13
2018-10-11T09:19:42.497Z,4.97
2018-10-11T09:22:10.508Z,4.83
2018-10-11T09:24:38.528Z,5.57
2018-10-11T09:27:06.547Z,5.23
2018-10-11T09:29:34.622Z,4.80
2018-10-11T09:32:02.674Z,5.13
2018-10-11T09:34:31.001Z,5.80
2018-10-11T09:36:59.242Z,5.03
2018-10-11T09:39:27.256Z,4.73
2018-10-11T09:41:55.284Z,5.17
2018-10-11T09:44:23.771Z,5.53
2018-10-11T09:46:51.758Z,4.90
2018-10-11T09:49:19.748Z,4.60
2018-10-11T09:51:47.719Z,4.43
2018-10-11T09:54:15.729Z,3.87
2018-10-11T09:57:31.681Z,4.30
2018-10-11T10:00:00.632Z,4.40
2018-10-11T10:02:29.504Z,4.43
2018-10-11T10:04:58.706Z,4.17
2018-10-11T10:07:26.721Z,4.37
2018-10-11T10:09:54.760Z,3.90
2018-10-11T10:12:22.885Z,3.90
2018-10-11T10:14:51.249Z,4.07
2018-10-11T10:17:19.417Z,3.90
2018-10-11T10:19:47.892Z,4.17
2018-10-11T10:22:15.917Z,3.77
2018-10-11T10:24:43.938Z,4.33
2018-10-11T10:27:12.696Z,4.20
2018-10-11T10:29:40.529Z,3.83
2018-10-11T10:32:08.701Z,4.10
2018-10-11T10:34:36.757Z,3.50
2018-10-11T10:37:04.783Z,3.87
2018-10-11T10:39:33.155Z,3.80
2018-10-11T10:42:01.450Z,4.40
2018-10-11T10:44:29.427Z,3.57
2018-10-11T10:46:57.447Z,3.50
2018-10-11T10:49:25.515Z,3.70
2018-10-11T10:51:53.515Z,4.07
2018-10-11T10:54:27.058Z,3.60
2018-10-11T10:56:55.071Z,4.50
2018-10-11T10:59:23.179Z,4.20
2018-10-11T11:01:51.223Z,4.23
2018-10-11T11:04:19.203Z,3.50
2018-10-11T11:06:47.451Z,3.97
2018-10-11T11:09:15.836Z,3.80
2018-10-11T11:11:44.359Z,3.83
2018-10-11T11:14:13.569Z,4.00
2018-10-11T11:16:42.039Z,3.90
2018-10-11T11:19:10.511Z,3.90
2018-10-11T11:21:38.792Z,3.60
2018-10-11T11:24:06.821Z,3.50
2018-10-11T11:26:35.062Z,3.80
2018-10-11T11:29:03.119Z,3.80
2018-10-11T11:31:31.744Z,3.93
2018-10-11T11:34:00.496Z,3.53
2018-10-11T11:36:28.537Z,3.23
2018-10-11T11:38:56.535Z,3.60
2018-10-11T11:41:24.521Z,3.30
2018-10-11T11:43:52.562Z,3.50
2018-10-11T11:46:20.560Z,3.10
2018-10-11T11:48:49.629Z,3.27
2018-10-11T11:51:17.685Z,3.50
2018-10-11T11:53:46.014Z,3.27
2018-10-11T11:56:13.981Z,3.37
2018-10-11T11:58:42.258Z,4.20
2018-10-11T12:01:10.967Z,3.03
2018-10-11T12:03:39.658Z,3.23
2018-10-11T12:06:08.142Z,3.23
2018-10-11T12:08:36.559Z,3.13
2018-10-11T12:11:04.643Z,3.37
2018-10-11T12:13:32.658Z,3.50
2018-10-11T12:16:00.919Z,2.77
2018-10-11T12:18:29.129Z,3.13
2018-10-11T12:20:57.736Z,2.80
2018-10-11T12:23:25.740Z,3.03
2018-10-11T12:25:54.285Z,3.00
2018-10-11T12:28:22.377Z,3.13
2018-10-11T12:30:50.360Z,2.73
2018-10-11T12:33:18.321Z,2.97
2018-10-11T12:35:46.313Z,2.87
2018-10-11T12:38:14.313Z,2.97
2018-10-11T12:40:42.717Z,2.77
2018-10-11T12:43:11.632Z,3.27
2018-10-11T12:45:40.085Z,3.10
2018-10-11T12:48:08.105Z,2.30
2018-10-11T12:50:36.126Z,2.70
2018-10-11T12:53:04.140Z,2.83
2018-10-11T12:55:32.151Z,3.23
2018-10-11T12:58:00.147Z,3.00
2018-10-11T13:00:28.145Z,2.87
2018-10-11T13:02:56.228Z,3.03
2018-10-11T13:05:24.266Z,3.05
2018-10-11T13:07:52.715Z,3.30
2018-10-11T13:10:20.982Z,2.90
2018-10-11T13:12:49.125Z,2.60
2018-10-11T13:15:17.223Z,2.60
2018-10-11T13:17:45.375Z,2.77
2018-10-11T13:20:13.372Z,3.10
2018-10-11T13:22:41.491Z,3.00
2018-10-11T13:25:09.512Z,3.10
2018-10-11T13:27:37.501Z,2.70
2018-10-11T13:30:05.596Z,2.73
2018-10-11T13:32:33.756Z,2.50
2018-10-11T13:35:02.050Z,2.70
2018-10-11T13:40:21.360Z,2.90
2018-10-11T13:42:49.341Z,3.00
2018-10-11T13:45:17.370Z,3.20
2018-10-11T13:47:45.824Z,3.07
2018-10-11T13:50:13.888Z,3.00
2018-10-11T13:52:41.986Z,3.17
2018-10-11T13:55:13.055Z,3.00
2018-10-11T13:57:38.128Z,2.73
2018-10-11T14:00:06.553Z,2.77
2018-10-11T14:02:34.613Z,3.20
2018-10-11T14:05:03.040Z,3.37
2018-10-11T14:07:31.049Z,3.20
2018-10-11T14:09:59.076Z,2.90
2018-10-11T14:12:27.390Z,3.70
2018-10-11T14:14:55.450Z,3.90
2018-10-11T14:17:23.525Z,3.80
2018-10-11T14:19:51.981Z,4.00
2018-10-11T14:22:20.368Z,5.17
2018-10-11T14:24:48.675Z,4.37
2018-10-11T14:27:17.062Z,4.10
2018-10-11T14:29:45.180Z,4.00
2018-10-11T14:32:13.212Z,4.37
2018-10-11T14:34:41.591Z,4.23
2018-10-11T14:37:10.081Z,3.70
2018-10-11T14:39:38.287Z,4.30
2018-10-11T14:42:06.437Z,4.17
2018-10-11T14:44:34.690Z,4.37
2018-10-11T14:47:02.693Z,3.73
2018-10-11T14:49:30.748Z,3.53
2018-10-11T14:51:58.774Z,4.00
2018-10-11T14:54:26.741Z,3.63
2018-10-11T14:56:54.933Z,4.00
2018-10-11T14:59:24.156Z,3.77
2018-10-11T15:01:53.384Z,3.57
2018-10-11T15:04:22.077Z,4.07
2018-10-11T15:06:50.414Z,3.30
2018-10-11T15:09:18.941Z,3.67
2018-10-11T15:11:47.001Z,3.90
2018-10-11T15:14:15.297Z,4.27
2018-10-11T15:16:43.827Z,4.03
2018-10-11T15:19:12.261Z,4.47
2018-10-11T15:21:40.713Z,4.33
2018-10-11T15:24:09.046Z,3.90
2018-10-11T15:29:19.097Z,4.20
2018-10-11T15:31:47.290Z,4.90
2018-10-11T15:34:17.203Z,4.80
2018-10-11T15:36:46.280Z,4.37
2018-10-11T15:39:14.619Z,4.73
2018-10-11T15:41:43.036Z,4.63
2018-10-11T15:44:12.062Z,4.60
2018-10-11T15:46:40.293Z,4.57
2018-10-11T15:49:08.930Z,5.00
2018-10-11T15:51:37.320Z,5.03
2018-10-11T15:54:05.358Z,4.60
2018-10-11T15:56:33.827Z,4.70
2018-10-11T15:59:02.161Z,5.17
2018-10-11T16:01:30.284Z,4.30
2018-10-11T16:03:58.680Z,5.00
2018-10-11T16:06:26.778Z,5.43
2018-10-11T16:08:55.076Z,5.30
2018-10-11T16:11:23.362Z,5.37
2018-10-11T16:13:51.666Z,5.23
2018-10-11T16:16:19.751Z,5.30
2018-10-11T16:18:48.053Z,5.43
2018-10-11T16:21:16.086Z,5.47
2018-10-11T16:23:44.547Z,5.90
2018-10-11T16:26:13.036Z,6.00
2018-10-11T16:28:41.248Z,6.33
2018-10-11T16:31:09.505Z,6.07
2018-10-11T16:33:37.613Z,6.20
2018-10-11T16:36:05.598Z,6.00
2018-10-11T16:38:33.963Z,6.73
2018-10-11T16:41:01.982Z,6.30
2018-10-11T16:43:30.012Z,6.23
2018-10-11T16:45:58.110Z,6.17
2018-10-11T16:48:26.172Z,6.73
2018-10-11T16:50:54.164Z,6.03
2018-10-11T16:53:22.270Z,7.10
2018-10-11T16:55:50.679Z,7.30
2018-10-11T16:58:18.890Z,7.37
2018-10-11T17:00:46.979Z,6.00
2018-10-11T17:03:15.047Z,8.37
2018-10-11T17:05:43.130Z,9.57
2018-10-11T17:08:11.479Z,6.63
2018-10-11T17:10:39.845Z,6.63
2018-10-11T17:13:07.843Z,8.07
2018-10-11T17:15:36.895Z,7.80
2018-10-11T17:18:05.573Z,8.13
2018-10-11T17:20:33.934Z,9.07
2018-10-11T17:23:06.577Z,8.60
2018-10-11T17:25:47.164Z,8.03
2018-10-11T17:28:20.040Z,6.80
2018-10-11T17:30:57.666Z,7.87
2018-10-11T17:33:25.884Z,8.00
2018-10-11T17:35:53.929Z,8.13
2018-10-11T17:38:26.159Z,8.50
2018-10-11T17:40:54.280Z,8.17
2018-10-11T17:43:23.305Z,8.33
2018-10-11T17:45:51.542Z,7.70
2018-10-11T17:48:21.877Z,7.90
2018-10-11T17:50:50.354Z,7.63
2018-10-11T17:53:20.879Z,8.50
2018-10-11T18:07:06.270Z,7.67
2018-10-11T18:10:11.597Z,9.30
2018-10-11T18:12:40.414Z,9.20
2018-10-11T18:15:11.378Z,9.13
2018-10-11T18:17:50.664Z,8.67
2018-10-11T18:20:21.326Z,9.07
2018-10-11T18:22:49.762Z,8.70
2018-10-11T18:25:22.406Z,8.30
2018-10-11T18:30:30.781Z,9.30
2018-10-11T18:33:16.822Z,9.67
2018-10-11T18:35:45.510Z,8.57
2018-10-11T18:38:14.350Z,9.70
2018-10-11T18:40:43.193Z,9.13
2018-10-11T18:43:11.566Z,8.80
2018-10-11T18:45:41.469Z,8.40
2018-10-11T18:48:11.775Z,9.83
2018-10-11T18:50:40.351Z,9.03
2018-10-11T18:53:09.170Z,9.00
2018-10-11T18:55:38.254Z,9.10
2018-10-11T18:58:09.850Z,9.10
2018-10-11T19:00:41.364Z,9.30
2018-10-11T19:03:12.189Z,9.30
2018-10-11T19:05:41.212Z,9.03
2018-10-11T19:08:09.561Z,9.80
2018-10-11T19:10:42.763Z,9.80
2018-10-11T19:13:11.316Z,9.77
2018-10-11T19:15:40.909Z,10.07
2018-10-11T19:18:28.315Z,8.67
2018-10-11T19:20:56.707Z,9.47
2018-10-11T19:23:25.266Z,9.70
2018-10-11T19:25:55.034Z,9.40
2018-10-11T19:28:24.557Z,10.10
2018-10-11T19:30:54.298Z,10.30
2018-10-11T19:33:27.402Z,10.40
2018-10-11T19:35:57.577Z,10.60
2018-10-11T19:38:26.665Z,11.00
2018-10-11T19:40:54.667Z,11.70
2018-10-11T19:43:22.650Z,11.30
2018-10-11T19:45:51.211Z,11.57
2018-10-11T19:48:19.411Z,12.83
2018-10-11T19:50:47.409Z,12.20
2018-10-11T19:53:15.448Z,12.10
2018-10-11T19:55:43.451Z,12.10
2018-10-11T19:58:11.481Z,11.13
2018-10-11T20:00:39.527Z,10.90
2018-10-11T20:03:07.841Z,11.17
2018-10-11T20:05:36.075Z,10.97
2018-10-11T20:08:04.556Z,10.03
2018-10-11T20:10:32.543Z,9.67
2018-10-11T20:13:00.768Z,10.17
2018-10-11T20:15:28.895Z,11.27
2018-10-11T20:17:57.221Z,10.70
2018-10-11T20:20:25.254Z,9.53
2018-10-11T20:23:10.968Z,10.57
2018-10-11T20:25:38.996Z,9.43
2018-10-11T20:28:07.077Z,9.83
2018-10-11T20:30:35.063Z,11.27
2018-10-11T20:33:03.561Z,10.20
2018-10-11T20:35:31.538Z,9.70
2018-10-11T20:37:59.580Z,9.30
2018-10-11T20:40:27.842Z,8.90
2018-10-11T20:42:56.273Z,9.30
2018-10-11T20:45:24.326Z,8.77
2018-10-11T20:47:52.351Z,8.57
2018-10-11T20:50:20.369Z,9.20
2018-10-11T20:52:54.218Z,8.57
2018-10-11T20:55:23.166Z,7.80
2018-10-11T20:57:51.174Z,8.10
2018-10-11T21:00:19.194Z,8.00
2018-10-11T21:02:47.959Z,8.43
2018-10-11T21:05:15.984Z,7.93
2018-10-11T21:07:44.182Z,8.60
2018-10-11T21:10:12.226Z,7.70
2018-10-11T21:12:40.266Z,7.90
2018-10-11T21:15:08.300Z,8.20
2018-10-11T21:17:36.368Z,8.30
2018-10-11T21:20:04.410Z,7.97
2018-10-11T21:22:32.732Z,7.53
2018-10-11T21:25:00.951Z,7.20
2018-10-11T21:27:29.298Z,7.90
2018-10-11T21:29:57.335Z,7.23
2018-10-11T21:32:25.391Z,7.13
2018-10-11T21:34:53.468Z,7.23
2018-10-11T21:37:21.715Z,6.90
2018-10-11T21:39:50.178Z,6.40
2018-10-11T21:42:18.203Z,7.10
2018-10-11T21:44:46.430Z,7.83
2018-10-11T21:47:15.287Z,6.87
2018-10-11T21:49:43.296Z,7.03
2018-10-11T21:52:12.352Z,6.10
2018-10-11T21:54:41.292Z,6.77
2018-10-11T21:57:09.325Z,7.23
2018-10-11T21:59:38.126Z,6.23
